createdAt,value
2022-10-17T00:01:00.764Z,16.50
2022-10-17T00:04:02.537Z,16.50
2022-10-17T00:07:04.244Z,16.60
2022-10-17T00:10:07.996Z,16.60
2022-10-17T00:13:10.056Z,16.70
2022-10-17T00:16:12.658Z,16.70
2022-10-17T00:19:14.308Z,16.70
2022-10-17T00:22:16.050Z,16.70
2022-10-17T00:25:18.604Z,16.80
2022-10-17T00:28:20.274Z,16.80
2022-10-17T00:31:23.618Z,16.80
2022-10-17T00:34:25.946Z,16.80
2022-10-17T00:37:28.035Z,16.80
2022-10-17T00:40:29.717Z,16.90
2022-10-17T00:44:03.263Z,17.00
2022-10-17T00:47:09.424Z,17.00
2022-10-17T00:50:12.904Z,17.00
2022-10-17T00:53:14.751Z,17.00
2022-10-17T00:56:17.289Z,17.10
2022-10-17T00:59:21.753Z,17.10
2022-10-17T01:02:23.940Z,17.10
2022-10-17T01:05:26.092Z,17.10
2022-10-17T01:08:27.956Z,17.10
2022-10-17T01:11:32.438Z,17.10
2022-10-17T01:15:05.268Z,17.10
2022-10-17T01:18:29.010Z,17.10
2022-10-17T01:21:42.101Z,17.10
2022-10-17T01:25:03.562Z,17.10
2022-10-17T01:28:17.106Z,17.10
2022-10-17T01:31:23.805Z,17.10
2022-10-17T01:34:37.904Z,17.10
2022-10-17T01:37:50.883Z,17.10
2022-10-17T01:41:02.411Z,17.00
2022-10-17T01:44:11.937Z,17.00
2022-10-17T01:47:21.563Z,16.90
2022-10-17T01:50:38.828Z,16.90
2022-10-17T01:53:47.025Z,16.90
2022-10-17T01:56:53.190Z,16.90
2022-10-17T01:59:56.541Z,16.90
2022-10-17T02:03:04.650Z,16.90
2022-10-17T02:06:06.810Z,16.90
2022-10-17T02:09:21.193Z,16.90
2022-10-17T02:12:49.849Z,16.90
2022-10-17T02:16:14.105Z,16.90
2022-10-17T02:19:59.687Z,16.90
2022-10-17T02:23:10.922Z,16.90
2022-10-17T02:26:26.039Z,16.90
2022-10-17T02:29:43.696Z,16.90
2022-10-17T02:33:05.574Z,16.90
2022-10-17T02:36:17.158Z,16.80
2022-10-17T02:39:22.091Z,16.80
2022-10-17T02:42:26.399Z,16.80
2022-10-17T02:45:30.216Z,16.80
2022-10-17T02:48:38.760Z,16.90
2022-10-17T02:51:52.899Z,16.90
2022-10-17T02:55:08.983Z,16.90
2022-10-17T02:58:18.152Z,16.90
2022-10-17T03:01:20.577Z,16.90
2022-10-17T03:04:22.380Z,16.90
2022-10-17T03:07:24.332Z,16.90
2022-10-17T03:10:25.987Z,16.90
2022-10-17T03:13:28.604Z,17.00
2022-10-17T03:16:30.309Z,17.00
2022-10-17T03:19:32.009Z,17.00
2022-10-17T03:22:34.284Z,17.10
2022-10-17T03:25:36.167Z,17.10
2022-10-17T03:28:37.978Z,17.10
2022-10-17T03:31:39.790Z,17.10
2022-10-17T03:34:41.567Z,17.00
2022-10-17T03:37:43.373Z,17.00
2022-10-17T03:40:45.062Z,17.10
2022-10-17T03:43:46.823Z,17.00
2022-10-17T03:46:48.766Z,17.10
2022-10-17T03:49:50.516Z,17.10
2022-10-17T03:52:52.161Z,17.20
2022-10-17T03:55:54.042Z,17.30
2022-10-17T03:58:57.042Z,17.30
2022-10-17T04:01:58.921Z,17.30
2022-10-17T04:05:01.112Z,17.30
2022-10-17T04:08:04.814Z,17.30
2022-10-17T04:11:08.655Z,17.40
2022-10-17T04:14:10.838Z,17.40
2022-10-17T04:17:12.566Z,17.40
2022-10-17T04:20:14.491Z,17.40
2022-10-17T04:23:16.319Z,17.40
2022-10-17T04:26:18.033Z,17.40
2022-10-17T04:29:19.852Z,17.40
2022-10-17T04:32:21.752Z,17.40
2022-10-17T04:35:23.676Z,17.40
2022-10-17T04:38:28.471Z,17.40
2022-10-17T04:41:30.494Z,17.30
2022-10-17T04:44:33.794Z,17.40
2022-10-17T04:47:35.527Z,17.30
2022-10-17T04:50:37.280Z,17.30
2022-10-17T04:53:40.392Z,17.30
2022-10-17T04:56:42.365Z,17.30
2022-10-17T04:59:44.887Z,17.30
2022-10-17T05:02:47.252Z,17.20
2022-10-17T05:05:49.249Z,17.20
2022-10-17T05:08:51.325Z,17.20
2022-10-17T05:11:53.191Z,17.20
2022-10-17T05:14:54.889Z,17.20
2022-10-17T05:17:57.510Z,17.20
2022-10-17T05:20:59.276Z,17.20
2022-10-17T05:24:00.937Z,17.20
2022-10-17T05:27:02.814Z,17.20
2022-10-17T05:30:05.457Z,17.20
2022-10-17T05:33:07.379Z,17.30
2022-10-17T05:36:09.856Z,17.30
2022-10-17T05:39:14.886Z,17.30
2022-10-17T05:42:16.579Z,17.30
2022-10-17T05:45:18.718Z,17.30
2022-10-17T05:48:21.630Z,17.30
2022-10-17T05:51:23.294Z,17.40
2022-10-17T05:54:25.364Z,17.40
2022-10-17T05:57:28.343Z,17.40
2022-10-17T06:00:30.449Z,17.40
2022-10-17T06:03:33.608Z,17.40
2022-10-17T06:06:38.089Z,17.40
2022-10-17T06:09:40.187Z,17.40
2022-10-17T06:12:42.731Z,17.40
2022-10-17T06:15:45.235Z,17.40
2022-10-17T06:21:53.846Z,17.30
2022-10-17T06:24:55.536Z,17.30
2022-10-17T06:27:57.230Z,17.30
2022-10-17T06:30:58.934Z,17.30
2022-10-17T06:34:00.889Z,17.30
2022-10-17T06:37:02.571Z,17.30
2022-10-17T06:40:05.298Z,17.30
2022-10-17T06:43:07.354Z,17.30
2022-10-17T06:46:09.339Z,17.30
2022-10-17T06:49:11.179Z,17.30
2022-10-17T06:52:13.062Z,17.30
2022-10-17T06:55:16.924Z,17.20
2022-10-17T06:58:22.389Z,17.20
2022-10-17T07:01:24.334Z,17.20
2022-10-17T07:04:26.231Z,17.20
2022-10-17T07:07:31.634Z,17.30
2022-10-17T07:10:38.233Z,17.30
2022-10-17T07:13:40.515Z,17.40
2022-10-17T07:16:42.295Z,17.40
2022-10-17T07:19:44.061Z,17.50
2022-10-17T07:22:45.730Z,17.50
2022-10-17T07:25:47.537Z,17.50
2022-10-17T07:28:53.112Z,17.60
2022-10-17T07:31:55.007Z,17.70
2022-10-17T07:34:57.000Z,17.90
2022-10-17T07:37:58.895Z,17.90
2022-10-17T07:41:02.913Z,18.00
2022-10-17T07:44:04.897Z,18.10
2022-10-17T07:47:06.658Z,18.20
2022-10-17T07:50:08.881Z,18.30
2022-10-17T07:53:10.924Z,18.30
2022-10-17T07:56:14.313Z,18.40
2022-10-17T07:59:19.269Z,18.40
2022-10-17T08:02:25.420Z,18.40
2022-10-17T08:05:27.242Z,18.50
2022-10-17T08:08:29.902Z,18.50
2022-10-17T08:11:31.642Z,18.50
2022-10-17T08:14:33.453Z,18.50
2022-10-17T08:17:36.596Z,18.60
2022-10-17T08:20:38.327Z,18.60
2022-10-17T08:23:40.715Z,18.70
2022-10-17T08:26:43.530Z,18.70
2022-10-17T08:29:48.828Z,18.70
2022-10-17T08:32:50.698Z,18.70
2022-10-17T08:35:52.719Z,18.70
2022-10-17T08:38:54.542Z,18.70
2022-10-17T08:42:16.408Z,18.60
2022-10-17T08:45:30.265Z,18.60
2022-10-17T08:48:42.724Z,18.60
2022-10-17T08:51:55.884Z,18.70
2022-10-17T08:54:57.890Z,18.70
2022-10-17T08:58:00.756Z,18.60
2022-10-17T09:01:27.511Z,18.60
2022-10-17T09:04:47.951Z,18.60
2022-10-17T09:08:14.463Z,18.70
2022-10-17T09:11:39.151Z,18.60
2022-10-17T09:14:43.896Z,18.70
2022-10-17T09:17:57.137Z,18.70
2022-10-17T09:21:23.199Z,18.70
2022-10-17T09:24:39.149Z,18.70
2022-10-17T09:27:45.625Z,18.70
2022-10-17T09:30:56.997Z,18.70
2022-10-17T09:34:02.328Z,18.80
2022-10-17T09:37:09.581Z,18.80
2022-10-17T09:40:24.218Z,18.80
2022-10-17T09:43:26.715Z,18.80
2022-10-17T09:46:38.065Z,18.80
2022-10-17T09:49:43.442Z,18.80
2022-10-17T09:52:47.793Z,18.80
2022-10-17T09:55:56.201Z,18.70
2022-10-17T09:58:59.126Z,18.70
2022-10-17T10:02:12.691Z,18.60
2022-10-17T10:05:20.570Z,18.60
2022-10-17T10:08:25.697Z,18.60
2022-10-17T10:11:49.846Z,18.60
2022-10-17T10:14:54.690Z,18.50
2022-10-17T10:17:57.322Z,18.50
2022-10-17T10:21:20.669Z,18.50
2022-10-17T10:24:26.933Z,18.50
2022-10-17T10:30:36.202Z,18.50
2022-10-17T10:33:45.898Z,18.50
2022-10-17T10:36:56.531Z,18.50
2022-10-17T10:40:04.316Z,18.50
2022-10-17T10:43:06.584Z,18.50
2022-10-17T10:46:17.470Z,18.60
2022-10-17T10:49:30.850Z,18.50
2022-10-17T10:52:46.349Z,18.50
2022-10-17T10:55:53.379Z,18.50
2022-10-17T10:59:03.159Z,18.50
2022-10-17T11:02:14.973Z,18.50
2022-10-17T11:05:21.095Z,18.50
2022-10-17T11:09:14.192Z,18.60
2022-10-17T11:12:21.800Z,18.60
2022-10-17T11:15:33.826Z,18.60
2022-10-17T11:18:55.004Z,18.60
2022-10-17T11:22:15.743Z,18.60
2022-10-17T11:25:25.367Z,18.70
2022-10-17T11:28:27.784Z,18.70
2022-10-17T11:31:34.735Z,18.70
2022-10-17T11:34:44.112Z,18.70
2022-10-17T11:37:53.689Z,18.80
2022-10-17T11:40:58.795Z,18.80
2022-10-17T11:44:25.341Z,18.80
2022-10-17T11:47:30.111Z,18.80
2022-10-17T11:54:06.869Z,18.80
2022-10-17T11:57:39.817Z,18.80
2022-10-17T12:01:01.599Z,18.90
2022-10-17T12:04:55.340Z,18.80
2022-10-17T12:08:10.520Z,18.90
2022-10-17T12:11:24.025Z,18.80
2022-10-17T12:14:46.916Z,18.90
2022-10-17T12:18:01.015Z,18.90
2022-10-17T12:21:03.422Z,18.80
2022-10-17T12:24:05.285Z,18.90
2022-10-17T12:27:31.946Z,18.80
2022-10-17T12:30:35.017Z,18.80
2022-10-17T12:33:51.879Z,18.90
2022-10-17T12:36:53.715Z,18.80
2022-10-17T12:39:55.421Z,18.80
2022-10-17T12:42:57.074Z,18.90
2022-10-17T12:46:03.775Z,18.90
2022-10-17T12:49:38.503Z,18.90
2022-10-17T12:52:40.500Z,18.80
2022-10-17T12:55:42.488Z,18.80
2022-10-17T12:58:50.216Z,18.80
2022-10-17T13:01:57.557Z,18.80
2022-10-17T13:05:08.073Z,18.80
2022-10-17T13:08:27.344Z,18.80
2022-10-17T13:11:32.337Z,18.90
2022-10-17T13:14:34.772Z,18.90
2022-10-17T13:17:38.744Z,18.90
2022-10-17T13:20:43.485Z,19.00
2022-10-17T13:23:45.451Z,19.00
2022-10-17T13:26:47.482Z,19.10
2022-10-17T13:29:49.547Z,19.10
2022-10-17T13:32:51.744Z,19.10
2022-10-17T13:36:00.573Z,19.10
2022-10-17T13:39:12.192Z,19.10
2022-10-17T13:42:39.125Z,19.10
2022-10-17T13:45:51.565Z,19.10
2022-10-17T13:48:53.685Z,19.10
2022-10-17T13:51:57.838Z,19.10
2022-10-17T13:55:17.480Z,19.00
2022-10-17T13:58:20.535Z,19.10
2022-10-17T14:01:22.776Z,19.10
2022-10-17T14:04:24.493Z,19.00
2022-10-17T14:08:10.130Z,19.00
2022-10-17T14:11:24.108Z,19.00
2022-10-17T14:14:26.892Z,19.00
2022-10-17T14:17:29.841Z,19.00
2022-10-17T14:21:31.689Z,19.00
2022-10-17T14:24:27.063Z,18.90
2022-10-17T14:27:29.805Z,18.90
2022-10-17T14:33:57.905Z,18.80
2022-10-17T14:37:00.236Z,18.70
2022-10-17T14:40:04.883Z,18.70
2022-10-17T14:43:06.983Z,18.70
2022-10-17T14:46:16.868Z,18.70
2022-10-17T14:49:27.503Z,18.70
2022-10-17T14:52:31.269Z,18.60
2022-10-17T14:55:37.870Z,18.70
2022-10-17T14:58:40.043Z,18.70
2022-10-17T15:01:41.747Z,18.60
2022-10-17T15:04:43.724Z,18.60
2022-10-17T15:07:45.627Z,18.50
2022-10-17T15:10:49.619Z,18.50
2022-10-17T15:13:52.279Z,18.50
2022-10-17T15:16:54.027Z,18.50
2022-10-17T15:19:57.012Z,18.50
2022-10-17T15:23:00.918Z,18.40
2022-10-17T15:26:02.681Z,18.40
2022-10-17T15:29:05.021Z,18.40
2022-10-17T15:32:06.745Z,18.30
2022-10-17T15:35:09.213Z,18.30
2022-10-17T15:38:15.930Z,18.30
2022-10-17T15:41:17.943Z,18.20
2022-10-17T15:44:19.744Z,18.20
2022-10-17T15:47:29.178Z,18.20
2022-10-17T15:50:31.489Z,18.10
2022-10-17T15:53:33.386Z,18.10
2022-10-17T15:56:40.196Z,18.10
2022-10-17T15:59:41.972Z,18.10
2022-10-17T16:02:44.834Z,18.00
2022-10-17T16:05:46.620Z,18.10
2022-10-17T16:08:49.544Z,18.00
2022-10-17T16:11:51.221Z,18.00
2022-10-17T16:14:53.136Z,18.00
2022-10-17T16:17:57.233Z,18.00
2022-10-17T16:20:58.976Z,18.00
2022-10-17T16:24:01.011Z,18.00
2022-10-17T16:27:02.768Z,18.00
2022-10-17T16:30:06.559Z,18.00
2022-10-17T16:33:09.714Z,17.90
2022-10-17T16:36:11.446Z,17.90
2022-10-17T16:39:13.102Z,17.90
2022-10-17T16:42:14.851Z,17.80
2022-10-17T16:45:19.342Z,17.80
2022-10-17T16:48:22.381Z,17.80
2022-10-17T16:51:26.224Z,17.70
2022-10-17T16:54:27.955Z,17.70
2022-10-17T16:57:30.831Z,17.60
2022-10-17T17:00:33.007Z,17.60
2022-10-17T17:03:37.210Z,17.60
2022-10-17T17:06:38.984Z,17.60
2022-10-17T17:09:40.828Z,17.50
2022-10-17T17:12:42.774Z,17.50
2022-10-17T17:18:49.175Z,17.50
2022-10-17T17:21:51.099Z,17.40
2022-10-17T17:24:52.977Z,17.40
2022-10-17T17:27:54.671Z,17.30
2022-10-17T17:30:56.656Z,17.30
2022-10-17T17:33:58.938Z,17.30
2022-10-17T17:37:00.997Z,17.30
2022-10-17T17:40:03.003Z,17.30
2022-10-17T17:43:05.120Z,17.30
2022-10-17T17:46:08.465Z,17.30
2022-10-17T17:49:11.569Z,17.20
2022-10-17T17:52:13.367Z,17.20
2022-10-17T17:55:15.239Z,17.20
2022-10-17T17:58:18.553Z,17.10
2022-10-17T18:01:22.775Z,17.10
2022-10-17T18:04:24.478Z,17.10
2022-10-17T18:07:26.146Z,17.00
2022-10-17T18:10:29.569Z,17.00
2022-10-17T18:13:31.542Z,17.00
2022-10-17T18:16:35.561Z,16.90
2022-10-17T18:19:37.421Z,16.90
2022-10-17T18:22:39.133Z,16.90
2022-10-17T18:25:41.128Z,17.00
2022-10-17T18:28:43.594Z,16.90
2022-10-17T18:31:45.379Z,16.90
2022-10-17T18:34:47.291Z,16.90
2022-10-17T18:37:49.905Z,16.90
2022-10-17T18:41:05.870Z,16.80
2022-10-17T18:44:07.869Z,16.90
2022-10-17T18:47:10.716Z,16.80
2022-10-17T18:50:12.517Z,16.80
2022-10-17T18:53:14.619Z,16.80
2022-10-17T18:56:17.550Z,16.80
2022-10-17T18:59:20.440Z,16.70
2022-10-17T19:02:22.677Z,16.70
2022-10-17T19:05:24.338Z,16.80
2022-10-17T19:08:26.058Z,16.80
2022-10-17T19:11:30.389Z,16.80
2022-10-17T19:14:32.294Z,16.80
2022-10-17T19:17:34.191Z,16.70
2022-10-17T19:20:36.181Z,16.70
2022-10-17T19:23:38.438Z,16.70
2022-10-17T19:26:41.651Z,16.70
2022-10-17T19:29:44.067Z,16.70
2022-10-17T19:32:45.977Z,16.70
2022-10-17T19:35:56.680Z,16.70
2022-10-17T19:38:58.941Z,16.60
2022-10-17T19:42:05.904Z,16.60
2022-10-17T19:45:09.537Z,16.60
2022-10-17T19:48:11.357Z,16.60
2022-10-17T19:51:16.182Z,16.60
2022-10-17T19:54:20.216Z,16.60
2022-10-17T19:57:22.414Z,16.50
2022-10-17T20:00:24.112Z,16.50
2022-10-17T20:03:26.121Z,16.50
2022-10-17T20:06:28.024Z,16.50
2022-10-17T20:09:30.022Z,16.50
2022-10-17T20:12:33.060Z,16.40
2022-10-17T20:15:35.353Z,16.40
2022-10-17T20:18:38.108Z,16.40
2022-10-17T20:21:40.289Z,16.30
2022-10-17T20:24:42.076Z,16.30
2022-10-17T20:27:43.844Z,16.30
2022-10-17T20:30:46.462Z,16.30
2022-10-17T20:33:48.465Z,16.30
2022-10-17T20:36:50.419Z,16.30
2022-10-17T20:40:10.686Z,16.30
2022-10-17T20:43:14.323Z,16.30
2022-10-17T20:46:34.909Z,16.30
2022-10-17T20:49:37.505Z,16.30
2022-10-17T20:52:39.420Z,16.30
2022-10-17T20:55:41.892Z,16.30
2022-10-17T20:58:44.022Z,16.30
2022-10-17T21:01:46.866Z,16.30
2022-10-17T21:04:50.005Z,16.30
2022-10-17T21:07:51.896Z,16.30
2022-10-17T21:10:53.814Z,16.30
2022-10-17T21:14:01.192Z,16.20
2022-10-17T21:17:05.200Z,16.20
2022-10-17T21:20:07.922Z,16.10
2022-10-17T21:23:09.657Z,16.20
2022-10-17T21:26:12.816Z,16.20
2022-10-17T21:29:14.793Z,16.20
2022-10-17T21:32:31.830Z,16.30
2022-10-17T21:35:38.326Z,16.30
2022-10-17T21:38:40.985Z,16.30
2022-10-17T21:41:43.953Z,16.20
2022-10-17T21:44:45.889Z,16.30
2022-10-17T21:48:11.241Z,16.30
2022-10-17T21:51:12.131Z,16.30
2022-10-17T21:54:15.082Z,16.30
2022-10-17T22:00:24.412Z,16.30
2022-10-17T22:03:26.347Z,16.20
2022-10-17T22:06:47.105Z,16.20
2022-10-17T22:09:48.881Z,16.20
2022-10-17T22:12:50.965Z,16.10
2022-10-17T22:15:52.641Z,16.10
2022-10-17T22:19:03.092Z,16.10
2022-10-17T22:22:07.786Z,16.00
2022-10-17T22:25:09.865Z,16.00
2022-10-17T22:28:11.539Z,16.00
2022-10-17T22:31:13.405Z,16.00
2022-10-17T22:34:16.428Z,16.00
2022-10-17T22:37:18.262Z,16.10
2022-10-17T22:40:20.283Z,16.10
2022-10-17T22:43:21.976Z,16.10
2022-10-17T22:46:23.930Z,16.10
2022-10-17T22:49:25.883Z,16.10
2022-10-17T22:52:27.965Z,16.10
2022-10-17T22:55:29.793Z,16.10
2022-10-17T22:58:34.121Z,16.10
2022-10-17T23:01:36.247Z,16.10
2022-10-17T23:04:38.091Z,16.00
2022-10-17T23:07:39.780Z,16.00
2022-10-17T23:10:41.896Z,16.00
2022-10-17T23:13:43.891Z,16.00
2022-10-17T23:16:45.910Z,16.10
2022-10-17T23:19:47.654Z,16.10
2022-10-17T23:22:49.310Z,16.10
2022-10-17T23:25:51.578Z,16.10
2022-10-17T23:28:56.406Z,16.10
2022-10-17T23:31:58.369Z,16.10
2022-10-17T23:35:00.292Z,16.10
2022-10-17T23:38:02.404Z,16.10
2022-10-17T23:41:04.769Z,16.10
2022-10-17T23:44:06.730Z,16.10
2022-10-17T23:47:08.493Z,16.10
2022-10-17T23:50:10.301Z,16.00
2022-10-17T23:53:11.994Z,16.10
2022-10-17T23:56:14.155Z,16.10
2022-10-17T23:59:16.617Z,16.10
